Private Wetterstation Wechselburg
Wetterdaten: Woche 03.04.23 - 09.04.23 (KW14)
Datum Zeit Temp. +2m Bodentemp. Temp.+5cm Temp. Wind Windchill X Diff Temp. Feuchte +2m Feuchte +5cm Luftdruck Regen Wind Richtung Sonnenschein Taupunkt Windchill Windben
03.04.2023 00:00 3,3 C 9,4 C 2,7 C 3,1 C 2,8 C 0,0 C 78 % 55 % 1027,2 hPa 0,0 l/m 0,3 km/h (0 Bft) N 0,00 h -0,1 C 2,8 C 1,4 km/h (1 Bft)
03.04.2023 01:00 2,5 C 9,3 C 1,9 C 2,3 C 1,8 C 0,0 C 78 % 54 % 1027,3 hPa 0,0 l/m 0,3 km/h (0 Bft) N 0,00 h -0,9 C 1,8 C 0,9 km/h (0 Bft)
03.04.2023 02:00 1,7 C 9,2 C 1,2 C 1,5 C 1,0 C 0,0 C 78 % 54 % 1027,6 hPa 0,0 l/m 0,3 km/h (0 Bft) N 0,00 h -1,7 C 1,0 C 0,3 km/h (0 Bft)
03.04.2023 03:00 1,1 C 9,0 C 0,7 C 0,9 C 0,5 C 0,0 C 78 % 54 % 1027,9 hPa 0,0 l/m 0,1 km/h (0 Bft) N 0,00 h -2,3 C 0,5 C 0,3 km/h (0 Bft)
03.04.2023 04:00 0,3 C 9,0 C -0,2 C 0,1 C -0,6 C 0,0 C 79 % 55 % 1027,7 hPa 0,0 l/m 0,2 km/h (0 Bft) N 0,00 h -2,9 C -0,6 C 0,5 km/h (0 Bft)
03.04.2023 05:00 -0,3 C 8,8 C -0,9 C -0,7 C -1,4 C 0,0 C 80 % 58 % 1028,2 hPa 0,0 l/m 0,1 km/h (0 Bft) N 0,00 h -3,3 C -1,4 C 0,1 km/h (0 Bft)
03.04.2023 06:00 -1,1 C 8,7 C -2,0 C -1,6 C -2,7 C 0,0 C 82 % 61 % 1028,4 hPa 0,0 l/m 0,0 km/h (0 Bft) N 0,00 h -3,8 C -2,7 C 0,0 km/h (0 Bft)
03.04.2023 07:00 -1,2 C 8,6 C -1,7 C 1,5 C 1,1 C 2,9 C 84 % 64 % 1028,8 hPa 0,0 l/m 0,1 km/h (0 Bft) N 0,58 h -3,7 C 1,1 C 0,1 km/h (0 Bft)
03.04.2023 08:00 -0,1 C 8,3 C -0,0 C 6,3 C 6,3 C 6,4 C 83 % 56 % 1029,4 hPa 0,0 l/m 0,3 km/h (0 Bft) O-NO 0,83 h -2,7 C 6,3 C 1,1 km/h (1 Bft)
03.04.2023 09:00 0,1 C 8,2 C 0,6 C 1,9 C 1,9 C 1,8 C 81 % 52 % 1029,8 hPa 0,0 l/m 1,3 km/h (1 Bft) O-NO 0,00 h -2,8 C 1,9 C 2,6 km/h (1 Bft)
03.04.2023 10:00 0,9 C 8,1 C 1,7 C 3,8 C 3,8 C 2,9 C 79 % 48 % 1030,0 hPa 0,0 l/m 1,3 km/h (1 Bft) O-NO 0,25 h -2,4 C 3,8 C 2,6 km/h (1 Bft)
03.04.2023 11:00 2,1 C 8,0 C 3,9 C 5,8 C 5,8 C 3,7 C 73 % 40 % 1030,5 hPa 0,0 l/m 1,8 km/h (1 Bft) O-NO 0,67 h -2,3 C 5,8 C 2,6 km/h (1 Bft)
03.04.2023 12:00 2,8 C 8,1 C 4,4 C 6,6 C 6,6 C 3,8 C 66 % 34 % 1030,5 hPa 0,0 l/m 1,2 km/h (1 Bft) O-NO 0,58 h -2,8 C 6,6 C 3,6 km/h (1 Bft)
03.04.2023 13:00 3,7 C 8,2 C 4,9 C 8,0 C 8,0 C 4,2 C 60 % 31 % 1030,2 hPa 0,0 l/m 1,2 km/h (1 Bft) O-NO 0,75 h -3,3 C 8,0 C 0,8 km/h (0 Bft)
03.04.2023 14:00 4,2 C 8,3 C 5,4 C 8,3 C 8,3 C 4,1 C 58 % 30 % 1030,0 hPa 0,0 l/m 0,8 km/h (0 Bft) O-NO 0,83 h -3,4 C 8,3 C 2,7 km/h (1 Bft)
03.04.2023 15:00 4,5 C 8,4 C 5,2 C 8,5 C 8,5 C 4,0 C 57 % 31 % 1029,4 hPa 0,0 l/m 1,1 km/h (1 Bft) NO 0,58 h -3,4 C 8,5 C 1,6 km/h (1 Bft)
03.04.2023 16:00 4,1 C 8,4 C 4,5 C 6,0 C 6,0 C 1,9 C 57 % 30 % 1029,8 hPa 0,0 l/m 0,7 km/h (0 Bft) NO 0,00 h -3,6 C 6,0 C 1,1 km/h (1 Bft)
03.04.2023 17:00 3,7 C 8,4 C 3,9 C 5,2 C 5,2 C 1,5 C 58 % 30 % 1029,7 hPa 0,0 l/m 0,9 km/h (0 Bft) O-NO 0,00 h -3,8 C 5,2 C 2,0 km/h (1 Bft)
03.04.2023 18:00 3,1 C 8,5 C 3,0 C 3,5 C 3,5 C 0,4 C 59 % 31 % 1029,7 hPa 0,0 l/m 0,4 km/h (0 Bft) N 0,00 h -4,1 C 3,5 C 0,6 km/h (0 Bft)
03.04.2023 19:00 2,6 C 8,5 C 2,4 C 2,6 C 2,5 C 0,0 C 58 % 30 % 1030,0 hPa 0,0 l/m 0,3 km/h (0 Bft) N 0,00 h -4,8 C 2,5 C 0,4 km/h (0 Bft)
03.04.2023 20:00 2,3 C 8,4 C 1,9 C 2,1 C 1,9 C 0,0 C 61 % 34 % 1030,9 hPa 0,0 l/m 0,1 km/h (0 Bft) N 0,00 h -4,4 C 1,9 C 0,5 km/h (0 Bft)
03.04.2023 21:00 1,8 C 8,4 C 1,2 C 1,5 C 0,9 C 0,0 C 64 % 38 % 1030,6 hPa 0,0 l/m 0,0 km/h (0 Bft) N 0,00 h -4,3 C 0,9 C 0,0 km/h (0 Bft)
03.04.2023 22:00 1,4 C 8,4 C 0,9 C 1,1 C 0,6 C 0,0 C 68 % 43 % 1030,7 hPa 0,0 l/m 0,0 km/h (0 Bft) N 0,00 h -3,9 C 0,6 C 0,0 km/h (0 Bft)
03.04.2023 23:00 1,2 C 8,4 C 0,9 C 1,0 C 0,6 C 0,0 C 71 % 47 % 1030,4 hPa 0,0 l/m 0,0 km/h (0 Bft) N 0,00 h -3,5 C 0,6 C 0,0 km/h (0 Bft)
04.04.2023 00:00 1,2 C 8,3 C 0,8 C 1,0 C 0,5 C 0,0 C 72 % 48 % 1030,1 hPa 0,0 l/m 0,0 km/h (0 Bft) N 0,00 h -3,2 C 0,5 C 0,0 km/h (0 Bft)
04.04.2023 01:00 1,1 C 8,3 C 0,7 C 0,9 C 0,4 C 0,0 C 74 % 50 % 1029,8 hPa 0,0 l/m 0,0 km/h (0 Bft) N 0,00 h -3,0 C 0,4 C 0,0 km/h (0 Bft)
04.04.2023 02:00 0,8 C 8,3 C 0,4 C 0,6 C 0,1 C 0,0 C 76 % 53 % 1029,9 hPa 0,0 l/m 0,0 km/h (0 Bft) N 0,00 h -2,9 C 0,1 C 0,0 km/h (0 Bft)
04.04.2023 03:00 0,7 C 8,3 C 0,2 C 0,4 C -0,2 C 0,0 C 77 % 55 % 1029,4 hPa 0,0 l/m 0,0 km/h (0 Bft) N 0,00 h -2,8 C -0,2 C 0,0 km/h (0 Bft)
04.04.2023 04:00 0,4 C 8,2 C 0,1 C 0,2 C -0,3 C 0,0 C 79 % 56 % 1028,6 hPa 0,0 l/m 0,0 km/h (0 Bft) N 0,00 h -2,8 C -0,3 C 0,0 km/h (0 Bft)
04.04.2023 05:00 0,2 C 8,2 C -0,0 C 0,0 C -0,3 C 0,0 C 80 % 57 % 1028,3 hPa 0,0 l/m 0,0 km/h (0 Bft) N 0,00 h -2,8 C -0,3 C 0,0 km/h (0 Bft)
04.04.2023 06:00 -0,1 C 8,1 C -0,4 C -0,3 C -0,8 C 0,0 C 82 % 59 % 1028,0 hPa 0,0 l/m 0,0 km/h (0 Bft) N 0,00 h -2,9 C -0,8 C 0,0 km/h (0 Bft)
04.04.2023 07:00 -0,2 C 8,1 C -0,2 C -0,3 C -0,5 C 0,0 C 83 % 60 % 1028,1 hPa 0,0 l/m 0,0 km/h (0 Bft) N 0,00 h -2,8 C -0,5 C 0,0 km/h (0 Bft)
04.04.2023 08:00 0,3 C 8,0 C 0,4 C 1,4 C 1,4 C 1,2 C 83 % 58 % 1028,7 hPa 0,0 l/m 0,1 km/h (0 Bft) N 0,00 h -2,3 C 1,4 C 0,0 km/h (0 Bft)
04.04.2023 09:00 2,0 C 7,9 C 1,2 C 6,7 C 6,7 C 4,7 C 81 % 56 % 1028,1 hPa 0,0 l/m 0,2 km/h (0 Bft) N 0,75 h -1,0 C 6,7 C 1,4 km/h (1 Bft)
04.04.2023 10:00 3,0 C 7,9 C 2,8 C 7,1 C 7,1 C 4,1 C 74 % 47 % 1028,3 hPa 0,0 l/m 0,4 km/h (0 Bft) O-NO 0,98 h -1,3 C 7,1 C 3,4 km/h (1 Bft)
04.04.2023 11:00 3,1 C 8,0 C 4,0 C 6,3 C 6,3 C 3,2 C 69 % 40 % 1028,2 hPa 0,0 l/m 0,3 km/h (0 Bft) N 0,27 h -2,1 C 6,3 C 0,3 km/h (0 Bft)
04.04.2023 12:00 3,4 C 8,1 C 4,6 C 6,7 C 6,7 C 3,3 C 62 % 33 % 1028,2 hPa 0,0 l/m 0,7 km/h (0 Bft) O-SO 0,60 h -3,1 C 6,7 C 1,4 km/h (1 Bft)
04.04.2023 13:00 4,3 C 8,1 C 5,5 C 8,9 C 8,9 C 4,5 C 58 % 30 % 1028,2 hPa 0,0 l/m 0,3 km/h (0 Bft) N 1,05 h -3,1 C 8,9 C 0,5 km/h (0 Bft)
04.04.2023 14:00 4,8 C 8,2 C 6,2 C 9,8 C 9,8 C 5,0 C 56 % 29 % 1028,0 hPa 0,0 l/m 0,4 km/h (0 Bft) N 0,58 h -3,3 C 9,8 C 1,6 km/h (1 Bft)
04.04.2023 15:00 5,4 C 8,4 C 5,9 C 10,9 C 10,9 C 5,5 C 52 % 28 % 1027,1 hPa 0,0 l/m 0,3 km/h (0 Bft) N 1,07 h -3,7 C 10,9 C 0,8 km/h (0 Bft)
04.04.2023 16:00 5,5 C 8,5 C 5,6 C 9,2 C 9,2 C 3,7 C 51 % 28 % 1027,0 hPa 0,0 l/m 0,2 km/h (0 Bft) N 0,42 h -3,9 C 9,2 C 0,4 km/h (0 Bft)
04.04.2023 17:00 5,4 C 8,5 C 5,0 C 7,6 C 7,6 C 2,1 C 50 % 27 % 1026,8 hPa 0,0 l/m 0,1 km/h (0 Bft) N 0,17 h -4,1 C 7,6 C 0,2 km/h (0 Bft)
04.04.2023 18:00 5,0 C 8,6 C 4,5 C 7,2 C 7,2 C 2,2 C 50 % 27 % 1026,6 hPa 0,0 l/m 0,0 km/h (0 Bft) N 0,67 h -4,6 C 7,2 C 0,0 km/h (0 Bft)
04.04.2023 19:00 5,1 C 8,6 C 4,1 C 6,4 C 6,4 C 1,3 C 50 % 27 % 1026,4 hPa 0,0 l/m 0,0 km/h (0 Bft) N 0,67 h -4,5 C 6,4 C 0,0 km/h (0 Bft)
04.04.2023 20:00 3,0 C 8,7 C 0,7 C 2,3 C 0,9 C 0,0 C 55 % 33 % 1026,8 hPa 0,0 l/m 0,0 km/h (0 Bft) N 0,00 h -5,2 C 0,9 C 0,0 km/h (0 Bft)
04.04.2023 21:00 1,0 C 8,7 C -1,2 C 0,1 C -1,7 C 0,0 C 63 % 42 % 1026,5 hPa 0,0 l/m 0,0 km/h (0 Bft) N 0,00 h -5,4 C -1,7 C 0,0 km/h (0 Bft)
04.04.2023 22:00 -0,5 C 8,6 C -2,2 C -1,3 C -2,9 C 0,0 C 70 % 48 % 1026,6 hPa 0,0 l/m 0,0 km/h (0 Bft) N 0,00 h -5,3 C -2,9 C 0,0 km/h (0 Bft)
04.04.2023 23:00 -1,6 C 8,5 C -3,2 C -2,4 C -4,1 C 0,0 C 74 % 52 % 1026,6 hPa 0,0 l/m 0,0 km/h (0 Bft) N 0,00 h -5,7 C -4,1 C 0,0 km/h (0 Bft)
05.04.2023 00:00 -2,4 C 8,4 C -3,7 C -3,1 C -4,5 C 0,0 C 77 % 55 % 1026,6 hPa 0,0 l/m 0,0 km/h (0 Bft) N 0,00 h -5,9 C -4,5 C 0,0 km/h (0 Bft)
05.04.2023 01:00 -2,8 C 8,2 C -4,0 C -3,4 C -4,6 C 0,0 C 79 % 57 % 1025,9 hPa 0,0 l/m 0,0 km/h (0 Bft) N 0,00 h -5,9 C -4,6 C 0,0 km/h (0 Bft)
05.04.2023 02:00 -2,5 C 8,1 C -2,7 C -2,8 C -3,3 C 0,0 C 82 % 62 % 1025,7 hPa 0,0 l/m 0,0 km/h (0 Bft) N 0,00 h -5,1 C -3,3 C 0,0 km/h (0 Bft)
05.04.2023 03:00 -1,9 C 8,0 C -2,0 C -2,2 C -2,7 C 0,0 C 83 % 62 % 1025,4 hPa 0,0 l/m 0,0 km/h (0 Bft) N 0,00 h -4,4 C -2,7 C 0,0 km/h (0 Bft)
05.04.2023 04:00 -1,4 C 7,8 C -1,4 C -1,6 C -1,9 C 0,0 C 83 % 59 % 1024,9 hPa 0,0 l/m 0,0 km/h (0 Bft) N 0,00 h -3,9 C -1,9 C 0,0 km/h (0 Bft)
05.04.2023 05:00 -1,2 C 7,8 C -1,3 C -1,4 C -1,7 C 0,0 C 83 % 59 % 1024,7 hPa 0,0 l/m 0,0 km/h (0 Bft) N 0,00 h -3,7 C -1,7 C 0,0 km/h (0 Bft)
05.04.2023 06:00 -0,9 C 7,7 C -1,1 C -1,1 C -1,4 C 0,0 C 83 % 59 % 1024,5 hPa 0,0 l/m 0,0 km/h (0 Bft) N 0,00 h -3,5 C -1,4 C 0,0 km/h (0 Bft)
05.04.2023 07:00 -0,6 C 7,6 C -0,6 C -0,6 C -0,8 C 0,0 C 82 % 59 % 1024,3 hPa 0,0 l/m 0,0 km/h (0 Bft) N 0,00 h -3,3 C -0,8 C 0,0 km/h (0 Bft)
05.04.2023 08:00 0,0 C 7,6 C 0,5 C 1,1 C 1,1 C 1,0 C 81 % 57 % 1024,4 hPa 0,0 l/m 0,0 km/h (0 Bft) N 0,00 h -2,8 C 1,1 C 0,0 km/h (0 Bft)
05.04.2023 09:00 1,7 C 7,5 C 1,9 C 6,1 C 6,1 C 4,4 C 79 % 53 % 1024,5 hPa 0,0 l/m 0,0 km/h (0 Bft) N 0,50 h -1,6 C 6,1 C 0,0 km/h (0 Bft)
05.04.2023 10:00 3,7 C 7,6 C 4,3 C 9,3 C 9,3 C 5,6 C 68 % 44 % 1024,3 hPa 0,0 l/m 0,2 km/h (0 Bft) N 1,00 h -1,7 C 9,3 C 1,7 km/h (1 Bft)
05.04.2023 11:00 4,9 C 7,7 C 7,1 C 8,4 C 8,4 C 3,6 C 60 % 37 % 1024,1 hPa 0,0 l/m 0,4 km/h (0 Bft) N 0,58 h -2,2 C 8,4 C 1,3 km/h (1 Bft)
05.04.2023 12:00 7,0 C 7,8 C 9,7 C 13,8 C 13,8 C 6,8 C 54 % 34 % 1024,1 hPa 0,0 l/m 0,2 km/h (0 Bft) N 1,00 h -1,7 C 13,8 C 0,0 km/h (0 Bft)
05.04.2023 13:00 6,6 C 7,9 C 7,9 C 11,1 C 11,1 C 4,5 C 51 % 29 % 1024,1 hPa 0,0 l/m 0,3 km/h (0 Bft) N 0,93 h -2,7 C 11,1 C 1,1 km/h (1 Bft)
05.04.2023 14:00 6,7 C 8,2 C 8,0 C 10,5 C 10,5 C 3,8 C 51 % 30 % 1023,8 hPa 0,0 l/m 0,2 km/h (0 Bft) N 1,00 h -2,8 C 10,5 C 0,3 km/h (0 Bft)
05.04.2023 15:00 7,1 C 8,3 C 7,6 C 10,9 C 10,9 C 3,8 C 50 % 32 % 1023,7 hPa 0,0 l/m 0,3 km/h (0 Bft) N 0,75 h -2,5 C 10,9 C 0,6 km/h (0 Bft)
05.04.2023 16:00 8,2 C 8,4 C 8,6 C 15,3 C 15,3 C 7,2 C 49 % 31 % 1023,6 hPa 0,0 l/m 0,2 km/h (0 Bft) N 1,00 h -1,9 C 15,3 C 0,4 km/h (0 Bft)
05.04.2023 17:00 7,7 C 8,5 C 7,1 C 10,1 C 10,1 C 2,3 C 48 % 29 % 1023,0 hPa 0,0 l/m 0,1 km/h (0 Bft) N 0,25 h -2,6 C 10,1 C 0,2 km/h (0 Bft)
05.04.2023 18:00 6,0 C 8,6 C 5,5 C 6,3 C 6,3 C 0,3 C 54 % 32 % 1022,5 hPa 0,0 l/m 0,0 km/h (0 Bft) N 0,00 h -2,7 C 6,3 C 0,0 km/h (0 Bft)
05.04.2023 19:00 5,2 C 8,6 C 3,7 C 5,0 C 4,7 C 0,0 C 58 % 37 % 1022,8 hPa 0,0 l/m 0,0 km/h (0 Bft) N 0,00 h -2,4 C 4,7 C 0,0 km/h (0 Bft)
05.04.2023 20:00 4,0 C 8,7 C 2,9 C 3,7 C 3,0 C 0,0 C 65 % 44 % 1023,0 hPa 0,0 l/m 0,0 km/h (0 Bft) N 0,00 h -2,0 C 3,0 C 0,0 km/h (0 Bft)
05.04.2023 21:00 3,1 C 8,7 C 1,8 C 2,6 C 1,8 C 0,0 C 69 % 48 % 1023,3 hPa 0,0 l/m 0,0 km/h (0 Bft) N 0,00 h -2,1 C 1,8 C 0,0 km/h (0 Bft)
05.04.2023 22:00 1,8 C 8,7 C -0,0 C 1,1 C -0,3 C 0,0 C 73 % 53 % 1023,4 hPa 0,0 l/m 0,0 km/h (0 Bft) N 0,00 h -2,5 C -0,3 C 0,0 km/h (0 Bft)
05.04.2023 23:00 0,3 C 8,7 C -1,6 C -0,5 C -2,1 C 0,0 C 76 % 57 % 1022,8 hPa 0,0 l/m 0,0 km/h (0 Bft) N 0,00 h -3,5 C -2,1 C 0,0 km/h (0 Bft)
06.04.2023 00:00 -0,3 C 8,6 C -0,9 C -0,6 C -1,4 C 0,0 C 80 % 61 % 1022,4 hPa 0,0 l/m 0,0 km/h (0 Bft) N 0,00 h -3,2 C -1,4 C 0,0 km/h (0 Bft)
06.04.2023 01:00 -0,0 C 8,6 C -0,2 C -0,3 C -0,7 C 0,0 C 83 % 63 % 1022,6 hPa 0,0 l/m 0,0 km/h (0 Bft) N 0,00 h -2,6 C -0,7 C 0,0 km/h (0 Bft)
06.04.2023 02:00 0,1 C 8,5 C -0,0 C -0,1 C -0,4 C 0,0 C 84 % 64 % 1022,2 hPa 0,0 l/m 0,0 km/h (0 Bft) N 0,00 h -2,3 C -0,4 C 0,0 km/h (0 Bft)
06.04.2023 03:00 0,3 C 8,5 C -0,1 C 0,0 C -0,5 C 0,0 C 84 % 64 % 1021,8 hPa 0,0 l/m 0,0 km/h (0 Bft) N 0,00 h -2,0 C -0,5 C 0,0 km/h (0 Bft)
06.04.2023 04:00 0,3 C 8,5 C 0,1 C 0,1 C -0,2 C 0,0 C 85 % 65 % 1021,6 hPa 0,0 l/m 0,0 km/h (0 Bft) N 0,00 h -1,9 C -0,2 C 0,0 km/h (0 Bft)
06.04.2023 05:00 0,2 C 8,4 C -0,3 C -0,1 C -0,7 C 0,0 C 85 % 66 % 1021,6 hPa 0,0 l/m 0,0 km/h (0 Bft) N 0,00 h -2,0 C -0,7 C 0,0 km/h (0 Bft)
06.04.2023 06:00 -0,1 C 8,4 C -1,0 C -0,5 C -1,3 C 0,0 C 86 % 66 % 1021,9 hPa 0,0 l/m 0,0 km/h (0 Bft) N 0,00 h -2,1 C -1,3 C 0,0 km/h (0 Bft)
06.04.2023 07:00 -0,4 C 8,4 C -1,1 C -0,7 C -1,2 C 0,0 C 86 % 68 % 1021,9 hPa 0,0 l/m 0,0 km/h (0 Bft) N 0,00 h -2,4 C -1,2 C 0,0 km/h (0 Bft)
06.04.2023 08:00 1,7 C 8,1 C 1,7 C 7,3 C 7,3 C 5,6 C 88 % 68 % 1021,7 hPa 0,0 l/m 0,0 km/h (0 Bft) N 0,83 h -0,1 C 7,3 C 0,0 km/h (0 Bft)
06.04.2023 09:00 3,5 C 8,0 C 3,3 C 7,7 C 7,7 C 4,2 C 85 % 62 % 1022,0 hPa 0,0 l/m 0,0 km/h (0 Bft) N 0,92 h 1,2 C 7,7 C 0,0 km/h (0 Bft)
06.04.2023 10:00 6,2 C 8,0 C 6,3 C 10,5 C 10,5 C 4,2 C 69 % 45 % 1022,3 hPa 0,0 l/m 0,0 km/h (0 Bft) N 0,73 h 0,8 C 10,5 C 0,4 km/h (0 Bft)
06.04.2023 11:00 7,7 C 8,1 C 9,6 C 11,6 C 11,6 C 3,9 C 53 % 31 % 1021,9 hPa 0,0 l/m 0,3 km/h (0 Bft) N 0,67 h -1,2 C 11,6 C 1,1 km/h (1 Bft)
06.04.2023 12:00 9,0 C 8,3 C 12,3 C 15,4 C 15,4 C 6,3 C 46 % 27 % 1021,8 hPa 0,0 l/m 0,5 km/h (0 Bft) N-NO 1,00 h -1,9 C 15,4 C 1,5 km/h (1 Bft)
06.04.2023 13:00 10,8 C 8,5 C 12,5 C 18,2 C 18,2 C 7,4 C 42 % 26 % 1021,3 hPa 0,0 l/m 0,4 km/h (0 Bft) W-SW 1,00 h -1,5 C 18,2 C 0,9 km/h (0 Bft)
06.04.2023 14:00 11,1 C 8,8 C 12,4 C 17,3 C 17,3 C 6,2 C 41 % 25 % 1021,9 hPa 0,0 l/m 0,3 km/h (0 Bft) N 1,00 h -1,6 C 17,3 C 0,0 km/h (0 Bft)
06.04.2023 15:00 11,7 C 9,1 C 11,0 C 18,6 C 18,6 C 6,9 C 40 % 25 % 1021,0 hPa 0,0 l/m 0,3 km/h (0 Bft) N 1,00 h -1,5 C 18,6 C 0,6 km/h (0 Bft)
06.04.2023 16:00 11,6 C 9,4 C 10,5 C 17,5 C 17,5 C 5,9 C 40 % 26 % 1020,3 hPa 0,0 l/m 0,2 km/h (0 Bft) N 1,00 h -1,7 C 17,5 C 1,1 km/h (1 Bft)
06.04.2023 17:00 11,7 C 9,6 C 10,3 C 14,8 C 14,8 C 3,2 C 40 % 25 % 1020,2 hPa 0,0 l/m 0,2 km/h (0 Bft) N 0,33 h -1,6 C 14,8 C 0,6 km/h (0 Bft)
06.04.2023 18:00 10,4 C 9,8 C 9,4 C 12,7 C 12,7 C 2,3 C 42 % 26 % 1020,6 hPa 0,0 l/m 0,2 km/h (0 Bft) N 0,82 h -1,8 C 12,7 C 0,0 km/h (0 Bft)
06.04.2023 19:00 9,0 C 9,9 C 7,8 C 9,5 C 9,4 C 0,6 C 48 % 29 % 1020,1 hPa 0,0 l/m 1,9 km/h (1 Bft) N-NO 0,58 h -1,5 C 9,4 C 3,1 km/h (1 Bft)
06.04.2023 20:00 6,6 C 10,0 C 4,4 C 6,1 C 5,0 C 0,0 C 56 % 37 % 1020,6 hPa 0,0 l/m 0,0 km/h (0 Bft) N 0,00 h -1,7 C 5,0 C 0,0 km/h (0 Bft)
06.04.2023 21:00 4,3 C 9,9 C 2,0 C 3,6 C 2,2 C 0,0 C 62 % 42 % 1021,1 hPa 0,0 l/m 0,0 km/h (0 Bft) N 0,00 h -2,4 C 2,2 C 0,0 km/h (0 Bft)
06.04.2023 22:00 3,0 C 9,8 C 0,8 C 2,3 C 0,8 C 0,0 C 66 % 46 % 1020,6 hPa 0,0 l/m 0,0 km/h (0 Bft) N 0,00 h -2,6 C 0,8 C 0,0 km/h (0 Bft)
06.04.2023 23:00 2,3 C 9,7 C 0,1 C 1,6 C 0,3 C 0,0 C 69 % 49 % 1020,8 hPa 0,0 l/m 0,0 km/h (0 Bft) N 0,00 h -2,9 C 0,3 C 0,0 km/h (0 Bft)
07.04.2023 00:00 0,8 C 9,6 C -1,1 C 0,1 C -1,4 C 0,0 C 72 % 53 % 1020,6 hPa 0,0 l/m 0,0 km/h (0 Bft) N 0,00 h -3,6 C -1,4 C 0,0 km/h (0 Bft)
07.04.2023 01:00 -0,2 C 9,5 C -1,8 C -0,8 C -2,0 C 0,0 C 77 % 56 % 1020,3 hPa 0,0 l/m 0,0 km/h (0 Bft) N 0,00 h -3,8 C -2,0 C 0,0 km/h (0 Bft)
07.04.2023 02:00 0,0 C 9,3 C -1,2 C -0,3 C -1,1 C 0,0 C 79 % 56 % 1019,9 hPa 0,0 l/m 0,0 km/h (0 Bft) N 0,00 h -3,2 C -1,1 C 0,0 km/h (0 Bft)
07.04.2023 03:00 0,0 C 9,1 C -1,7 C -0,5 C -1,5 C 0,0 C 77 % 54 % 1019,3 hPa 0,0 l/m 0,0 km/h (0 Bft) N 0,00 h -3,6 C -1,5 C 0,0 km/h (0 Bft)
07.04.2023 04:00 -0,7 C 8,9 C -2,1 C -1,2 C -2,3 C 0,0 C 78 % 56 % 1019,1 hPa 0,0 l/m 0,0 km/h (0 Bft) N 0,00 h -4,0 C -2,3 C 0,0 km/h (0 Bft)
07.04.2023 05:00 -1,3 C 8,8 C -2,5 C -1,9 C -3,0 C 0,0 C 79 % 58 % 1018,9 hPa 0,0 l/m 0,0 km/h (0 Bft) N 0,00 h -4,4 C -3,0 C 0,0 km/h (0 Bft)
07.04.2023 06:00 -1,8 C 8,7 C -3,0 C -2,4 C -3,5 C 0,0 C 81 % 60 % 1018,7 hPa 0,0 l/m 0,0 km/h (0 Bft) N 0,00 h -4,6 C -3,5 C 0,0 km/h (0 Bft)
07.04.2023 07:00 -1,7 C 8,6 C -2,6 C -0,5 C -0,7 C 1,4 C 83 % 62 % 1018,7 hPa 0,0 l/m 0,0 km/h (0 Bft) N 0,42 h -4,3 C -0,7 C 0,0 km/h (0 Bft)
07.04.2023 08:00 -0,5 C 8,4 C -1,0 C 4,7 C 4,7 C 5,3 C 85 % 63 % 1018,7 hPa 0,0 l/m 0,0 km/h (0 Bft) N 0,83 h -2,8 C 4,7 C 0,0 km/h (0 Bft)
07.04.2023 09:00 2,1 C 8,1 C 2,1 C 7,8 C 7,8 C 5,7 C 82 % 57 % 1019,0 hPa 0,0 l/m 0,0 km/h (0 Bft) N 1,00 h -0,7 C 7,8 C 0,0 km/h (0 Bft)
07.04.2023 10:00 5,6 C 8,2 C 6,6 C 10,5 C 10,5 C 4,8 C 73 % 47 % 1019,0 hPa 0,0 l/m 0,1 km/h (0 Bft) N 1,00 h 1,2 C 10,5 C 0,0 km/h (0 Bft)
07.04.2023 11:00 8,3 C 8,3 C 9,3 C 12,5 C 12,5 C 4,2 C 60 % 37 % 1018,6 hPa 0,0 l/m 0,3 km/h (0 Bft) N 1,00 h 1,0 C 12,5 C 0,6 km/h (0 Bft)
07.04.2023 12:00 9,6 C 8,6 C 10,9 C 14,3 C 14,3 C 4,6 C 51 % 31 % 1018,8 hPa 0,0 l/m 0,8 km/h (0 Bft) O-NO 1,00 h 0,0 C 14,3 C 2,1 km/h (1 Bft)
07.04.2023 13:00 10,7 C 8,8 C 11,6 C 16,0 C 16,0 C 5,4 C 48 % 29 % 1018,8 hPa 0,0 l/m 0,4 km/h (0 Bft) N 1,00 h 0,2 C 16,0 C 0,7 km/h (0 Bft)
07.04.2023 14:00 10,2 C 9,0 C 11,1 C 13,9 C 13,9 C 3,7 C 49 % 30 % 1019,1 hPa 0,0 l/m 1,0 km/h (0 Bft) O-NO 0,92 h 0,0 C 13,9 C 2,7 km/h (1 Bft)
07.04.2023 15:00 10,2 C 9,3 C 10,6 C 14,7 C 14,7 C 4,5 C 49 % 29 % 1018,8 hPa 0,0 l/m 0,6 km/h (0 Bft) O-NO 1,00 h -0,1 C 14,7 C 0,7 km/h (0 Bft)
07.04.2023 16:00 10,5 C 9,4 C 11,1 C 15,0 C 15,0 C 4,5 C 48 % 29 % 1018,7 hPa 0,0 l/m 1,0 km/h (0 Bft) O-NO 1,00 h 0,1 C 15,0 C 2,5 km/h (1 Bft)
07.04.2023 17:00 9,9 C 9,7 C 10,0 C 11,9 C 11,9 C 1,9 C 50 % 30 % 1019,0 hPa 0,0 l/m 0,1 km/h (0 Bft) N 0,00 h -0,1 C 11,9 C 0,5 km/h (0 Bft)
07.04.2023 18:00 9,6 C 9,8 C 9,2 C 10,7 C 10,7 C 1,1 C 51 % 32 % 1019,1 hPa 0,0 l/m 0,0 km/h (0 Bft) N 0,00 h -0,1 C 10,7 C 0,0 km/h (0 Bft)
07.04.2023 19:00 8,9 C 9,9 C 8,4 C 9,2 C 9,2 C 0,3 C 55 % 35 % 1019,2 hPa 0,0 l/m 0,1 km/h (0 Bft) N 0,00 h 0,4 C 9,2 C 0,3 km/h (0 Bft)
07.04.2023 20:00 7,6 C 10,0 C 7,0 C 7,5 C 7,3 C 0,0 C 60 % 39 % 1020,1 hPa 0,0 l/m 0,0 km/h (0 Bft) N 0,00 h 0,4 C 7,3 C 0,0 km/h (0 Bft)
07.04.2023 21:00 6,4 C 10,0 C 6,0 C 6,3 C 6,2 C 0,0 C 67 % 47 % 1020,5 hPa 0,0 l/m 0,2 km/h (0 Bft) N 0,00 h 0,8 C 6,2 C 0,4 km/h (0 Bft)
07.04.2023 22:00 5,4 C 10,0 C 5,3 C 5,4 C 5,4 C 0,0 C 73 % 52 % 1021,0 hPa 0,0 l/m 0,0 km/h (0 Bft) N 0,00 h 1,0 C 5,4 C 0,0 km/h (0 Bft)
07.04.2023 23:00 4,7 C 10,0 C 4,6 C 4,7 C 4,6 C 0,0 C 78 % 59 % 1021,3 hPa 0,0 l/m 0,1 km/h (0 Bft) N 0,00 h 1,1 C 4,6 C 0,0 km/h (0 Bft)
08.04.2023 00:00 4,3 C 10,2 C 4,2 C 4,1 C 3,8 C 0,0 C 82 % 66 % 1021,0 hPa 0,0 l/m 0,0 km/h (0 Bft) N 0,00 h 1,5 C 3,8 C 0,0 km/h (0 Bft)
08.04.2023 01:00 4,3 C 10,2 C 3,9 C 4,2 C 3,9 C 0,0 C 84 % 71 % 1021,1 hPa 0,7 l/m 0,0 km/h (0 Bft) N 0,00 h 1,8 C 3,9 C 0,0 km/h (0 Bft)
08.04.2023 02:00 4,3 C 10,2 C 4,0 C 4,2 C 3,9 C 0,0 C 85 % 74 % 1021,4 hPa 0,0 l/m 0,0 km/h (0 Bft) N 0,00 h 2,0 C 3,9 C 0,0 km/h (0 Bft)
08.04.2023 03:00 4,4 C 10,2 C 4,1 C 4,3 C 4,1 C 0,0 C 86 % 75 % 1021,0 hPa 0,7 l/m 0,0 km/h (0 Bft) N 0,00 h 2,2 C 4,1 C 0,0 km/h (0 Bft)
08.04.2023 04:00 4,5 C 10,1 C 4,2 C 4,4 C 4,3 C 0,0 C 87 % 77 % 1020,9 hPa 0,0 l/m 0,0 km/h (0 Bft) N 0,00 h 2,4 C 4,3 C 0,0 km/h (0 Bft)
08.04.2023 05:00 4,5 C 10,1 C 4,2 C 4,4 C 4,3 C 0,0 C 87 % 79 % 1021,0 hPa 0,0 l/m 0,0 km/h (0 Bft) N 0,00 h 2,6 C 4,3 C 0,0 km/h (0 Bft)
08.04.2023 06:00 4,4 C 10,1 C 4,2 C 4,4 C 4,3 C 0,0 C 88 % 84 % 1021,4 hPa 0,7 l/m 0,1 km/h (0 Bft) N 0,00 h 2,6 C 4,3 C 0,3 km/h (0 Bft)
08.04.2023 07:00 4,4 C 10,0 C 4,3 C 4,5 C 4,5 C 0,1 C 88 % 87 % 1021,6 hPa 0,0 l/m 0,0 km/h (0 Bft) N 0,00 h 2,6 C 4,5 C 0,0 km/h (0 Bft)
08.04.2023 08:00 4,4 C 10,0 C 4,5 C 4,8 C 4,8 C 0,3 C 88 % 87 % 1021,9 hPa 0,0 l/m 0,1 km/h (0 Bft) N 0,00 h 2,6 C 4,8 C 0,7 km/h (0 Bft)
08.04.2023 09:00 4,6 C 10,0 C 4,9 C 5,3 C 5,3 C 0,7 C 88 % 87 % 1022,2 hPa 0,0 l/m 0,3 km/h (0 Bft) N 0,00 h 2,7 C 5,3 C 0,2 km/h (0 Bft)
08.04.2023 10:00 5,0 C 10,0 C 5,7 C 6,2 C 6,2 C 1,2 C 89 % 88 % 1022,6 hPa 0,0 l/m 0,0 km/h (0 Bft) N 0,00 h 3,3 C 6,2 C 0,0 km/h (0 Bft)
08.04.2023 11:00 5,5 C 10,1 C 6,5 C 7,3 C 7,3 C 1,8 C 89 % 88 % 1023,1 hPa 0,0 l/m 0,0 km/h (0 Bft) N 0,00 h 3,8 C 7,3 C 0,0 km/h (0 Bft)
08.04.2023 12:00 6,8 C 10,0 C 7,4 C 9,4 C 9,4 C 2,6 C 88 % 81 % 1023,5 hPa 0,0 l/m 1,4 km/h (1 Bft) NO 0,27 h 5,0 C 9,4 C 2,3 km/h (1 Bft)
08.04.2023 13:00 7,8 C 9,9 C 8,0 C 9,8 C 9,8 C 2,0 C 84 % 72 % 1023,8 hPa 0,0 l/m 0,6 km/h (0 Bft) O-SO 0,00 h 5,2 C 9,8 C 0,9 km/h (0 Bft)
08.04.2023 14:00 8,7 C 9,8 C 9,3 C 11,9 C 11,9 C 3,2 C 80 % 67 % 1023,7 hPa 0,0 l/m 0,3 km/h (0 Bft) N 0,42 h 5,4 C 11,9 C 0,4 km/h (0 Bft)
08.04.2023 15:00 8,8 C 9,9 C 8,8 C 10,5 C 10,5 C 1,7 C 76 % 65 % 1024,0 hPa 0,0 l/m 0,1 km/h (0 Bft) N 0,00 h 4,9 C 10,5 C 0,5 km/h (0 Bft)
08.04.2023 16:00 8,1 C 10,0 C 7,9 C 8,8 C 8,8 C 0,7 C 78 % 64 % 1024,2 hPa 0,0 l/m 0,2 km/h (0 Bft) N 0,00 h 4,6 C 8,8 C 0,0 km/h (0 Bft)
08.04.2023 17:00 7,8 C 10,0 C 7,7 C 8,7 C 8,7 C 1,0 C 79 % 62 % 1024,4 hPa 0,0 l/m 0,2 km/h (0 Bft) N 0,00 h 4,4 C 8,7 C 0,6 km/h (0 Bft)
08.04.2023 18:00 7,5 C 10,1 C 7,3 C 8,1 C 8,1 C 0,6 C 79 % 63 % 1024,8 hPa 0,0 l/m 0,2 km/h (0 Bft) N 0,00 h 4,1 C 8,1 C 0,4 km/h (0 Bft)
08.04.2023 19:00 6,9 C 10,2 C 6,6 C 7,0 C 7,0 C 0,1 C 80 % 65 % 1025,4 hPa 0,0 l/m 0,1 km/h (0 Bft) N 0,00 h 3,7 C 7,0 C 0,0 km/h (0 Bft)
08.04.2023 20:00 6,1 C 10,2 C 5,6 C 6,0 C 5,8 C 0,0 C 82 % 67 % 1026,4 hPa 0,0 l/m 0,0 km/h (0 Bft) N 0,00 h 3,1 C 5,8 C 0,0 km/h (0 Bft)
08.04.2023 21:00 5,2 C 10,2 C 4,0 C 4,9 C 4,2 C 0,0 C 82 % 69 % 1026,4 hPa 0,0 l/m 0,0 km/h (0 Bft) N 0,00 h 2,4 C 4,2 C 0,0 km/h (0 Bft)
08.04.2023 22:00 4,1 C 10,2 C 2,6 C 3,6 C 2,8 C 0,0 C 84 % 71 % 1026,4 hPa 0,0 l/m 0,0 km/h (0 Bft) N 0,00 h 1,6 C 2,8 C 0,0 km/h (0 Bft)
08.04.2023 23:00 3,8 C 10,2 C 2,7 C 3,4 C 2,8 C 0,0 C 85 % 72 % 1026,7 hPa 0,0 l/m 0,0 km/h (0 Bft) N 0,00 h 1,5 C 2,8 C 0,0 km/h (0 Bft)
09.04.2023 00:00 2,4 C 10,2 C 0,7 C 1,9 C 0,9 C 0,0 C 86 % 72 % 1026,8 hPa 0,0 l/m 0,0 km/h (0 Bft) N 0,00 h 0,2 C 0,9 C 0,0 km/h (0 Bft)
09.04.2023 01:00 1,4 C 10,1 C -0,3 C 0,8 C -0,3 C 0,0 C 87 % 71 % 1026,6 hPa 0,0 l/m 0,0 km/h (0 Bft) N 0,00 h -0,6 C -0,3 C 0,0 km/h (0 Bft)
09.04.2023 02:00 0,4 C 9,9 C -1,0 C -0,1 C -1,3 C 0,0 C 87 % 71 % 1026,5 hPa 0,0 l/m 0,0 km/h (0 Bft) N 0,00 h -1,5 C -1,3 C 0,0 km/h (0 Bft)
09.04.2023 03:00 -0,5 C 9,7 C -1,7 C -1,1 C -2,3 C 0,0 C 87 % 71 % 1026,6 hPa 0,0 l/m 0,0 km/h (0 Bft) N 0,00 h -2,3 C -2,3 C 0,0 km/h (0 Bft)
09.04.2023 04:00 -0,9 C 9,5 C -1,8 C -1,4 C -2,3 C 0,0 C 88 % 71 % 1026,4 hPa 0,0 l/m 0,0 km/h (0 Bft) N 0,00 h -2,7 C -2,3 C 0,0 km/h (0 Bft)
09.04.2023 05:00 -1,3 C 9,4 C -1,8 C -1,7 C -2,4 C 0,0 C 88 % 71 % 1026,7 hPa 0,0 l/m 0,0 km/h (0 Bft) N 0,00 h -3,0 C -2,4 C 0,0 km/h (0 Bft)
09.04.2023 06:00 -1,6 C 9,2 C -2,0 C -1,9 C -2,6 C 0,0 C 88 % 72 % 1026,9 hPa 0,0 l/m 0,0 km/h (0 Bft) N 0,00 h -3,3 C -2,6 C 0,0 km/h (0 Bft)
09.04.2023 07:00 -1,5 C 9,0 C -1,4 C -1,5 C -1,7 C 0,2 C 89 % 72 % 1027,1 hPa 0,0 l/m 0,0 km/h (0 Bft) N 0,00 h -3,1 C -1,7 C 0,0 km/h (0 Bft)
09.04.2023 08:00 -1,0 C 8,9 C 0,2 C 0,4 C 0,4 C 1,3 C 89 % 75 % 1027,3 hPa 0,0 l/m 0,0 km/h (0 Bft) N 0,00 h -2,5 C 0,4 C 0,0 km/h (0 Bft)
09.04.2023 09:00 -0,8 C 8,9 C 2,5 C 3,8 C 3,8 C 4,6 C 89 % 86 % 1027,6 hPa 0,0 l/m 0,0 km/h (0 Bft) N 1,13 h -2,4 C 3,8 C 0,0 km/h (0 Bft)
09.04.2023 10:00 1,8 C 8,9 C 5,0 C 9,2 C 9,2 C 7,4 C 89 % 87 % 1027,6 hPa 0,0 l/m 0,0 km/h (0 Bft) N 1,00 h 0,2 C 9,2 C 0,0 km/h (0 Bft)
09.04.2023 11:00 5,0 C 8,6 C 9,6 C 10,9 C 10,9 C 5,9 C 89 % 64 % 1027,7 hPa 0,0 l/m 0,0 km/h (0 Bft) N 1,00 h 3,3 C 10,9 C 0,0 km/h (0 Bft)
09.04.2023 12:00 9,4 C 8,8 C 13,2 C 15,8 C 15,8 C 6,4 C 81 % 48 % 1027,1 hPa 0,0 l/m 0,3 km/h (0 Bft) N 1,00 h 6,4 C 15,8 C 1,1 km/h (1 Bft)
09.04.2023 13:00 12,5 C 9,1 C 13,4 C 19,8 C 19,8 C 7,3 C 69 % 47 % 1027,1 hPa 0,0 l/m 0,1 km/h (0 Bft) N 1,00 h 6,9 C 19,8 C 0,4 km/h (0 Bft)
09.04.2023 14:00 13,5 C 9,5 C 14,6 C 20,0 C 20,0 C 6,5 C 62 % 42 % 1026,8 hPa 0,0 l/m 0,2 km/h (0 Bft) N 1,00 h 6,5 C 20,0 C 0,3 km/h (0 Bft)
09.04.2023 15:00 13,7 C 9,9 C 14,0 C 20,9 C 20,9 C 7,3 C 59 % 42 % 1026,6 hPa 0,0 l/m 0,4 km/h (0 Bft) N 1,00 h 5,8 C 20,9 C 1,2 km/h (1 Bft)
09.04.2023 16:00 13,5 C 10,3 C 13,0 C 18,1 C 18,1 C 4,6 C 58 % 41 % 1025,8 hPa 0,0 l/m 0,4 km/h (0 Bft) N 1,00 h 5,3 C 18,1 C 1,7 km/h (1 Bft)
09.04.2023 17:00 13,1 C 10,5 C 12,7 C 15,8 C 15,8 C 2,7 C 57 % 40 % 1025,7 hPa 0,0 l/m 0,4 km/h (0 Bft) N 0,17 h 4,8 C 15,8 C 1,0 km/h (0 Bft)
09.04.2023 18:00 12,7 C 10,7 C 11,9 C 14,7 C 14,7 C 2,0 C 57 % 40 % 1025,7 hPa 0,0 l/m 0,3 km/h (0 Bft) N 0,25 h 4,4 C 14,7 C 0,8 km/h (0 Bft)
09.04.2023 19:00 11,4 C 10,9 C 10,1 C 11,9 C 11,8 C 0,6 C 59 % 43 % 1026,0 hPa 0,0 l/m 0,2 km/h (0 Bft) N 0,25 h 3,7 C 11,8 C 0,8 km/h (0 Bft)
09.04.2023 20:00 8,9 C 10,9 C 6,3 C 8,4 C 7,4 C 0,0 C 66 % 51 % 1026,1 hPa 0,0 l/m 0,0 km/h (0 Bft) N 0,00 h 2,9 C 7,4 C 0,0 km/h (0 Bft)
09.04.2023 21:00 6,5 C 11,0 C 4,3 C 5,8 C 4,5 C 0,0 C 72 % 60 % 1026,3 hPa 0,0 l/m 0,0 km/h (0 Bft) N 0,00 h 1,8 C 4,5 C 0,0 km/h (0 Bft)
09.04.2023 22:00 4,8 C 11,0 C 2,8 C 4,1 C 2,8 C 0,0 C 77 % 63 % 1026,5 hPa 0,0 l/m 0,0 km/h (0 Bft) N 0,00 h 1,1 C 2,8 C 0,0 km/h (0 Bft)
09.04.2023 23:00 3,5 C 10,9 C 2,0 C 2,9 C 1,7 C 0,0 C 81 % 65 % 1026,4 hPa 0,0 l/m 0,0 km/h (0 Bft) N 0,00 h 0,5 C 1,7 C 0,0 km/h (0 Bft)
Min-Datum _ 05.04.23 05.04.23 05.04.23 05.04.23 05.04.23 03.04.23 06.04.23 04.04.23 07.04.23 - 03.04.23 - - 05.04.23 05.04.23 03.04.23
_ Min-Zeit 01:30 08:55 01:05 01:30 01:10 00:00 15:50 18:16 11:05 - 02:11 - - 00:20 01:10 00:00
Minimum _ -2,9 C 7,5 C -4,2 C -3,5 C -4,8 C 0,0 C 38 % 25 % 1018,5 hPa - 0,0 km/h (0 Bft) - - -6,0 C -4,8 C 0,0 km/h (0 Bft)
Max-Datum _ 09.04.23 09.04.23 09.04.23 09.04.23 09.04.23 09.04.23 08.04.23 08.04.23 03.04.23 08.04.23 07.04.23 - 05.04.23 09.04.23 09.04.23 03.04.23
_ Max-Zeit 15:50 21:45 14:00 15:50 15:50 10:26 10:11 11:40 22:05 01:30 16:10 - 12:59 14:00 15:50 14:45
Maximum _ 14,3 C 11,1 C 15,6 C 22,7 C 22,7 C 9,4 C 89 % 89 % 1031,1 hPa 0,7 l/m 4,0 km/h
O-NO (1 Bft)
- 1,00 h 7,7 C 22,7 C 12,1 km/h
O-NO (2 Bft)
Durchschnitt _ 3,9 C 9,0 C 3,7 C 5,5 C 5,2 C 1,8 C 71 % 52 % 1024,6 hPa #2,1 l/m 0,2 km/h (0 Bft) O-NO #47:51 h -1,1 C 5,2 C 0,4 km/h (0 Bft)
2023 www.wetterstation-wechselburg.de